createdAt,value
2022-10-26T00:01:11.354Z,11.90
2022-10-26T00:06:11.931Z,11.90
2022-10-26T00:11:06.960Z,11.50
2022-10-26T00:16:02.265Z,10.90
2022-10-26T00:21:03.376Z,12.00
2022-10-26T00:25:58.672Z,12.20
2022-10-26T00:28:25.937Z,12.20
2022-10-26T00:30:52.836Z,12.20
2022-10-26T00:35:56.246Z,13.40
2022-10-26T00:40:51.129Z,12.40
2022-10-26T00:43:23.416Z,12.70
2022-10-26T00:45:53.456Z,12.20
2022-10-26T00:48:30.078Z,12.20
2022-10-26T00:51:00.059Z,12.20
2022-10-26T00:53:27.740Z,12.00
2022-10-26T00:55:54.747Z,10.90
2022-10-26T00:58:22.865Z,11.00
2022-10-26T01:00:50.990Z,11.60
2022-10-26T01:03:18.543Z,11.60
2022-10-26T01:05:47.676Z,12.30
2022-10-26T01:08:16.932Z,13.10
2022-10-26T01:13:12.764Z,12.30
2022-10-26T01:16:04.448Z,12.30
2022-10-26T01:18:53.074Z,12.40
2022-10-26T01:21:41.683Z,12.40
2022-10-26T01:24:34.235Z,12.30
2022-10-26T01:27:32.740Z,12.30
2022-10-26T01:30:19.252Z,12.40
2022-10-26T01:33:17.147Z,12.80
2022-10-26T01:36:12.813Z,12.10
2022-10-26T01:38:58.308Z,12.30
2022-10-26T01:42:00.309Z,12.50
2022-10-26T01:44:34.686Z,12.40
2022-10-26T01:47:03.253Z,12.20
2022-10-26T01:49:35.519Z,13.70
2022-10-26T01:57:02.659Z,12.50
2022-10-26T01:59:46.835Z,12.40
2022-10-26T02:02:49.532Z,12.90
2022-10-26T02:05:31.581Z,12.60
2022-10-26T02:10:44.063Z,12.50
2022-10-26T02:13:31.860Z,13.70
2022-10-26T02:16:30.340Z,11.40
2022-10-26T02:19:09.648Z,12.50
2022-10-26T02:21:41.563Z,12.60
2022-10-26T02:24:11.329Z,12.50
2022-10-26T02:26:40.893Z,12.60
2022-10-26T02:29:13.469Z,13.80
2022-10-26T02:31:42.033Z,12.70
2022-10-26T02:34:13.341Z,13.80
2022-10-26T02:36:44.992Z,12.50
2022-10-26T02:39:14.397Z,12.70
2022-10-26T02:41:43.195Z,12.70
2022-10-26T02:44:32.245Z,12.70
2022-10-26T02:46:59.684Z,12.80
2022-10-26T02:49:27.112Z,11.40
2022-10-26T02:52:04.998Z,12.70
2022-10-26T02:54:56.798Z,12.30
2022-10-26T02:57:40.509Z,12.70
2022-10-26T03:00:13.382Z,14.00
2022-10-26T03:02:48.564Z,12.70
2022-10-26T03:05:18.185Z,13.90
2022-10-26T03:10:12.567Z,12.20
2022-10-26T03:15:07.388Z,11.80
2022-10-26T03:20:01.365Z,11.90
2022-10-26T03:24:55.372Z,13.60
2022-10-26T03:32:17.481Z,11.70
2022-10-26T03:47:00.394Z,12.90
2022-10-26T03:51:54.438Z,13.10
2022-10-26T03:56:52.633Z,11.60
2022-10-26T04:01:52.695Z,13.90
2022-10-26T04:06:49.682Z,11.90
2022-10-26T04:14:11.030Z,11.90
2022-10-26T04:21:35.487Z,11.60
2022-10-26T04:28:57.170Z,12.00
2022-10-26T04:38:48.018Z,13.00
2022-10-26T04:41:14.913Z,12.80
2022-10-26T04:51:07.497Z,12.80
2022-10-26T05:00:56.958Z,11.80
2022-10-26T05:03:23.817Z,13.00
2022-10-26T05:05:50.827Z,13.80
2022-10-26T05:08:17.628Z,13.10
2022-10-26T05:10:49.886Z,12.80
2022-10-26T05:23:11.684Z,12.70
2022-10-26T05:28:09.713Z,11.50
2022-10-26T05:33:04.190Z,14.00
2022-10-26T05:35:32.281Z,12.80
2022-10-26T05:37:59.991Z,12.30
2022-10-26T05:43:00.589Z,12.90
2022-10-26T05:57:50.999Z,12.00
2022-10-26T06:00:22.323Z,12.90
2022-10-26T06:03:08.377Z,12.90
2022-10-26T06:05:44.738Z,12.90
2022-10-26T06:10:39.538Z,11.70
2022-10-26T06:13:06.979Z,12.20
2022-10-26T06:15:40.113Z,12.80
2022-10-26T06:18:24.824Z,12.90
2022-10-26T06:21:23.594Z,14.10
2022-10-26T06:24:16.041Z,13.60
2022-10-26T06:27:01.000Z,13.10
2022-10-26T06:29:43.616Z,11.50
2022-10-26T06:32:11.146Z,11.50
2022-10-26T06:34:44.433Z,13.20
2022-10-26T06:37:12.317Z,12.20
2022-10-26T06:39:47.024Z,12.90
2022-10-26T06:47:27.050Z,13.00
2022-10-26T06:49:57.791Z,13.00
2022-10-26T06:52:51.383Z,12.00
2022-10-26T06:57:46.295Z,12.40
2022-10-26T07:00:25.229Z,12.90
2022-10-26T07:05:20.873Z,14.70
2022-10-26T07:17:46.965Z,13.60
2022-10-26T07:20:15.424Z,13.60
2022-10-26T07:30:07.772Z,12.70
2022-10-26T08:02:02.588Z,13.50
2022-10-26T08:16:46.097Z,16.40
2022-10-26T08:19:12.911Z,14.70
2022-10-26T08:24:08.272Z,16.60
2022-10-26T08:26:35.220Z,16.80
2022-10-26T08:36:26.294Z,16.40
2022-10-26T08:38:53.418Z,17.90
2022-10-26T08:41:43.280Z,15.30
2022-10-26T08:44:40.349Z,16.60
2022-10-26T08:47:31.095Z,17.10
2022-10-26T08:50:25.526Z,16.40
2022-10-26T08:53:26.878Z,16.40
2022-10-26T08:55:59.567Z,17.00
2022-10-26T08:58:32.286Z,16.50
2022-10-26T09:00:59.430Z,17.80
2022-10-26T09:06:18.204Z,18.30
2022-10-26T09:08:50.798Z,17.50
2022-10-26T09:11:40.541Z,16.30
2022-10-26T09:14:36.204Z,17.70
2022-10-26T09:17:17.956Z,17.20
2022-10-26T09:19:59.381Z,17.70
2022-10-26T09:23:01.563Z,17.20
2022-10-26T09:25:38.366Z,17.00
2022-10-26T09:30:36.155Z,19.00
2022-10-26T09:33:16.817Z,18.90
2022-10-26T09:35:50.051Z,19.80
2022-10-26T09:38:43.083Z,18.00
2022-10-26T09:41:31.007Z,21.20
2022-10-26T09:44:20.176Z,19.90
2022-10-26T09:46:56.645Z,19.70
2022-10-26T09:49:33.014Z,19.80
2022-10-26T09:52:00.526Z,18.40
2022-10-26T09:57:00.029Z,21.10
2022-10-26T10:01:54.214Z,20.20
2022-10-26T10:04:22.945Z,20.70
2022-10-26T10:07:13.117Z,20.00
2022-10-26T10:12:20.544Z,21.70
2022-10-26T10:15:00.052Z,20.70
2022-10-26T10:17:27.001Z,19.80
2022-10-26T10:19:54.071Z,21.90
2022-10-26T10:22:25.172Z,20.00
2022-10-26T10:25:02.047Z,21.70
2022-10-26T10:27:31.008Z,23.20
2022-10-26T10:30:03.056Z,21.90
2022-10-26T10:32:35.689Z,20.70
2022-10-26T10:35:24.107Z,21.60
2022-10-26T10:37:51.881Z,22.30
2022-10-26T10:40:22.461Z,23.90
2022-10-26T10:42:52.307Z,21.40
2022-10-26T10:45:29.626Z,21.30
2022-10-26T10:48:20.978Z,23.70
2022-10-26T10:50:52.882Z,21.50
2022-10-26T10:53:41.885Z,22.40
2022-10-26T10:56:33.345Z,21.00
2022-10-26T11:01:38.527Z,20.70
2022-10-26T11:04:34.097Z,20.50
2022-10-26T11:07:04.707Z,20.20
2022-10-26T11:09:36.440Z,19.90
2022-10-26T11:12:10.213Z,19.70
2022-10-26T11:14:47.634Z,19.60
2022-10-26T11:17:19.530Z,19.50
2022-10-26T11:19:55.721Z,19.30
2022-10-26T11:22:34.954Z,18.10
2022-10-26T11:25:25.164Z,19.00
2022-10-26T11:28:24.003Z,19.00
2022-10-26T11:31:00.177Z,19.00
2022-10-26T11:33:33.959Z,17.80
2022-10-26T11:36:08.560Z,17.80
2022-10-26T11:38:56.754Z,18.40
2022-10-26T11:41:44.749Z,19.10
2022-10-26T11:44:18.880Z,19.20
2022-10-26T11:46:55.382Z,19.80
2022-10-26T11:49:52.260Z,20.80
2022-10-26T11:52:37.921Z,22.30
2022-10-26T11:55:05.138Z,23.60
2022-10-26T11:57:37.444Z,23.70
2022-10-26T12:02:36.932Z,23.40
2022-10-26T12:05:09.366Z,22.80
2022-10-26T12:07:40.100Z,22.10
2022-10-26T12:10:23.781Z,22.30
2022-10-26T12:13:02.623Z,22.60
2022-10-26T12:16:01.795Z,22.00
2022-10-26T12:19:01.001Z,22.80
2022-10-26T12:21:29.860Z,23.10
2022-10-26T12:26:23.816Z,24.20
2022-10-26T12:29:02.988Z,22.50
2022-10-26T12:31:32.920Z,24.40
2022-10-26T12:34:00.705Z,23.50
2022-10-26T12:36:50.148Z,24.60
2022-10-26T12:39:36.512Z,22.10
2022-10-26T12:42:06.373Z,23.50
2022-10-26T12:44:37.281Z,23.30
2022-10-26T12:47:05.272Z,22.70
2022-10-26T12:49:59.972Z,23.20
2022-10-26T12:52:34.015Z,23.70
2022-10-26T12:55:12.559Z,24.10
2022-10-26T12:58:01.942Z,24.40
2022-10-26T13:00:29.292Z,25.60
2022-10-26T13:03:23.752Z,26.00
2022-10-26T13:06:09.761Z,30.10
2022-10-26T13:11:47.198Z,30.70
2022-10-26T13:14:34.205Z,30.00
2022-10-26T13:17:02.340Z,32.00
2022-10-26T13:19:45.320Z,30.80
2022-10-26T13:22:19.233Z,30.70
2022-10-26T13:24:51.240Z,31.50
2022-10-26T13:27:18.092Z,31.80
2022-10-26T13:30:03.312Z,31.80
2022-10-26T13:32:36.462Z,31.40
2022-10-26T13:35:04.036Z,32.70
2022-10-26T13:37:33.621Z,32.50
2022-10-26T13:40:04.303Z,32.70
2022-10-26T13:42:45.605Z,33.30
2022-10-26T13:45:15.077Z,33.50
2022-10-26T13:47:44.847Z,33.10
2022-10-26T13:50:24.768Z,32.90
2022-10-26T13:53:20.262Z,32.90
2022-10-26T13:56:29.692Z,33.10
2022-10-26T13:59:10.228Z,32.60
2022-10-26T14:01:37.258Z,32.40
2022-10-26T14:04:18.178Z,32.20
2022-10-26T14:06:52.763Z,32.00
2022-10-26T14:09:20.865Z,32.00
2022-10-26T14:12:00.252Z,30.20
2022-10-26T14:14:33.499Z,30.70
2022-10-26T14:17:00.589Z,28.90
2022-10-26T14:19:29.844Z,31.10
2022-10-26T14:21:57.663Z,28.60
2022-10-26T14:24:45.842Z,29.10
2022-10-26T14:27:18.404Z,29.50
2022-10-26T14:32:22.889Z,27.00
2022-10-26T14:34:49.882Z,25.80
2022-10-26T14:37:30.241Z,26.50
2022-10-26T14:39:57.435Z,26.80
2022-10-26T14:42:32.315Z,28.20
2022-10-26T14:45:00.473Z,26.80
2022-10-26T14:47:30.738Z,27.50
2022-10-26T14:52:52.833Z,27.90
2022-10-26T14:57:49.542Z,26.30
2022-10-26T15:00:25.313Z,26.00
2022-10-26T15:02:56.834Z,25.20
2022-10-26T15:05:23.742Z,24.50
2022-10-26T15:07:52.236Z,23.90
2022-10-26T15:10:40.055Z,23.50
2022-10-26T15:13:21.426Z,23.00
2022-10-26T15:15:49.959Z,22.70
2022-10-26T15:18:23.869Z,22.70
2022-10-26T15:20:52.330Z,22.40
2022-10-26T15:23:21.250Z,22.30
2022-10-26T15:26:00.160Z,22.30
2022-10-26T15:28:43.327Z,22.40
2022-10-26T15:31:10.238Z,21.70
2022-10-26T15:33:39.611Z,22.30
2022-10-26T15:36:14.560Z,22.30
2022-10-26T15:38:42.568Z,22.40
2022-10-26T15:41:38.807Z,22.50
2022-10-26T15:44:14.511Z,22.60
2022-10-26T15:46:41.610Z,22.50
2022-10-26T15:49:15.646Z,22.50
2022-10-26T15:51:44.885Z,22.30
2022-10-26T15:54:11.747Z,22.00
2022-10-26T15:56:39.761Z,22.20
2022-10-26T15:59:15.508Z,22.30
2022-10-26T16:04:12.169Z,21.00
2022-10-26T16:06:41.245Z,21.00
2022-10-26T16:09:13.668Z,20.80
2022-10-26T16:11:40.494Z,20.70
2022-10-26T16:14:07.821Z,20.50
2022-10-26T16:16:34.693Z,20.40
2022-10-26T16:19:25.554Z,20.40
2022-10-26T16:21:51.336Z,20.30
2022-10-26T16:26:45.940Z,20.40
2022-10-26T16:29:12.758Z,20.20
2022-10-26T16:31:39.590Z,20.30
2022-10-26T16:34:06.545Z,19.90
2022-10-26T16:36:34.596Z,19.80
2022-10-26T16:41:30.066Z,19.60
2022-10-26T16:43:56.847Z,19.60
2022-10-26T16:46:24.539Z,20.20
2022-10-26T16:48:52.218Z,20.40
2022-10-26T16:51:24.816Z,19.20
2022-10-26T16:53:53.068Z,19.10
2022-10-26T16:56:23.167Z,19.00
2022-10-26T16:58:50.049Z,20.30
2022-10-26T17:01:18.946Z,20.40
2022-10-26T17:03:47.272Z,17.70
2022-10-26T17:06:14.641Z,19.30
2022-10-26T17:08:42.161Z,18.10
2022-10-26T17:11:11.667Z,20.00
2022-10-26T17:13:39.878Z,18.60
2022-10-26T17:16:18.567Z,18.00
2022-10-26T17:18:47.210Z,18.40
2022-10-26T17:21:16.753Z,18.50
2022-10-26T17:26:13.407Z,18.30
2022-10-26T17:28:40.469Z,17.70
2022-10-26T17:31:10.405Z,18.20
2022-10-26T17:33:38.842Z,18.50
2022-10-26T17:36:07.146Z,18.00
2022-10-26T17:38:36.525Z,17.90
2022-10-26T17:41:08.667Z,18.00
2022-10-26T17:43:37.596Z,17.80
2022-10-26T17:46:06.910Z,17.80
2022-10-26T17:48:33.740Z,19.10
2022-10-26T17:51:06.744Z,17.60
2022-10-26T17:56:12.801Z,17.60
2022-10-26T18:01:10.512Z,16.40
2022-10-26T18:03:39.213Z,16.40
2022-10-26T18:06:10.474Z,16.10
2022-10-26T18:08:38.100Z,18.50
2022-10-26T18:11:06.981Z,17.10
2022-10-26T18:13:34.356Z,17.00
2022-10-26T18:16:11.956Z,17.00
2022-10-26T18:18:40.056Z,18.40
2022-10-26T18:21:11.877Z,16.90
2022-10-26T18:26:11.400Z,16.80
2022-10-26T18:28:40.716Z,16.50
2022-10-26T18:31:09.275Z,16.00
2022-10-26T18:38:31.731Z,15.50
2022-10-26T18:40:59.374Z,16.70
2022-10-26T18:43:27.373Z,16.80
2022-10-26T18:46:04.191Z,17.90
2022-10-26T18:48:31.379Z,16.90
2022-10-26T18:51:05.787Z,16.90
2022-10-26T18:53:34.007Z,17.50
2022-10-26T18:56:03.077Z,17.00
2022-10-26T18:58:34.473Z,16.90
2022-10-26T19:01:05.496Z,17.00
2022-10-26T19:03:32.483Z,18.20
2022-10-26T19:16:12.629Z,16.80
2022-10-26T19:21:21.477Z,16.80
2022-10-26T19:23:53.733Z,17.20
2022-10-26T19:26:24.114Z,16.70
2022-10-26T19:28:58.022Z,16.60
2022-10-26T19:31:27.349Z,16.60
2022-10-26T19:38:50.708Z,17.30
2022-10-26T19:41:17.906Z,16.00
2022-10-26T19:43:45.441Z,17.20
2022-10-26T19:46:21.281Z,16.20
2022-10-26T19:48:49.883Z,15.70
2022-10-26T19:56:13.439Z,16.00
2022-10-26T19:58:41.760Z,16.10
2022-10-26T20:01:09.773Z,16.60
2022-10-26T20:06:08.130Z,16.80
2022-10-26T20:08:38.511Z,15.70
2022-10-26T20:11:09.002Z,14.60
2022-10-26T20:13:39.700Z,15.60
2022-10-26T20:16:09.478Z,15.70
2022-10-26T20:21:16.659Z,14.50
2022-10-26T20:26:18.774Z,16.80
2022-10-26T20:31:14.287Z,14.10
2022-10-26T20:33:41.226Z,15.20
2022-10-26T20:36:08.548Z,16.70
2022-10-26T20:38:36.460Z,15.30
2022-10-26T20:41:06.316Z,14.70
2022-10-26T20:43:39.395Z,16.30
2022-10-26T20:46:07.698Z,13.20
2022-10-26T20:51:15.132Z,16.40
2022-10-26T20:54:14.109Z,15.00
2022-10-26T20:56:42.918Z,16.30
2022-10-26T20:59:31.709Z,15.00
2022-10-26T21:01:58.581Z,14.10
2022-10-26T21:04:25.532Z,13.80
2022-10-26T21:14:17.715Z,13.90
2022-10-26T21:21:39.241Z,14.40
2022-10-26T21:29:00.749Z,13.90
2022-10-26T21:31:27.731Z,14.70
2022-10-26T21:36:22.120Z,15.40
2022-10-26T21:41:21.044Z,14.90
2022-10-26T21:43:51.386Z,14.20
2022-10-26T21:48:47.941Z,14.30
2022-10-26T21:51:17.537Z,14.30
2022-10-26T21:56:17.645Z,14.30
2022-10-26T22:01:17.928Z,14.30
2022-10-26T22:03:45.401Z,14.70
2022-10-26T22:06:14.941Z,14.30
2022-10-26T22:11:18.148Z,14.30
2022-10-26T22:16:20.197Z,13.10
2022-10-26T22:18:48.273Z,13.20
2022-10-26T22:21:17.234Z,14.30
2022-10-26T22:23:44.976Z,13.90
2022-10-26T22:26:17.801Z,14.30
2022-10-26T22:28:46.609Z,14.30
2022-10-26T22:31:19.749Z,14.40
2022-10-26T22:33:51.064Z,15.70
2022-10-26T22:38:45.395Z,13.60
2022-10-26T22:41:12.263Z,15.10
2022-10-26T22:46:21.223Z,14.00
2022-10-26T22:48:53.003Z,16.10
2022-10-26T22:51:21.722Z,14.70
2022-10-26T22:53:59.716Z,15.00
2022-10-26T22:56:27.889Z,13.20
2022-10-26T23:01:25.190Z,14.40
2022-10-26T23:03:53.144Z,15.00
2022-10-26T23:06:20.476Z,15.60
2022-10-26T23:08:47.379Z,15.30
2022-10-26T23:11:17.322Z,15.00
2022-10-26T23:16:15.437Z,15.10
2022-10-26T23:21:11.205Z,14.70
2022-10-26T23:23:38.521Z,15.00
2022-10-26T23:26:08.575Z,15.10
2022-10-26T23:28:36.169Z,16.40
2022-10-26T23:33:31.189Z,16.30
2022-10-26T23:35:58.668Z,13.90
2022-10-26T23:38:25.974Z,16.10
2022-10-26T23:40:57.805Z,14.90
2022-10-26T23:43:26.095Z,14.80
2022-10-26T23:45:53.920Z,15.50
2022-10-26T23:50:49.843Z,15.80
2022-10-26T23:53:19.593Z,14.20
2022-10-26T23:55:46.813Z,15.90
2022-10-26T23:58:15.092Z,15.50
